Time;durP1;ratioP1;P1;durP2;ratioP2;P2;SDS_P1;SDS_P2;PMS_P1;PMS_P2;Temp;Humidity;BMP_temperature;BMP_pressure;BME280_temperature;BME280_humidity;BME280_pressure;Samples;Min_cycle;Max_cycle;Signal;HPM_P1;HPM_P2
2023/10/12 00:01:39;;;;;;;14.47;7.70;;;;;;;-143.21;64.92;73117.38;5067200;28;20209;-82
2023/10/12 00:04:07;;;;;;;18.17;7.90;;;;;;;-143.21;64.86;73119.38;5069662;28;20208;-81
2023/10/12 00:06:37;;;;;;;14.13;7.80;;;;;;;-143.21;64.49;73105.47;5067209;28;20664;-81
2023/10/12 00:09:16;;;;;;;18.83;8.17;;;;;;;-143.21;64.43;73103.50;5069787;28;20236;-82
2023/10/12 00:11:56;;;;;;;13.37;7.57;;;;;;;-143.21;64.35;73109.44;5069099;28;20229;-81
2023/10/12 00:14:23;;;;;;;18.93;7.83;;;;;;;-143.21;64.95;73113.41;5073354;28;20322;-81
2023/10/12 00:16:52;;;;;;;10.27;7.57;;;;;;;-143.21;64.67;73117.38;5073203;28;20258;-81
2023/10/12 00:19:20;;;;;;;11.93;7.37;;;;;;;-143.21;64.80;73117.38;5072293;28;20197;-81
2023/10/12 00:21:47;;;;;;;12.40;7.50;;;;;;;-143.21;64.90;73119.38;5072242;28;20201;-81
2023/10/12 00:24:17;;;;;;;16.90;7.30;;;;;;;-143.21;64.85;73119.38;5072949;28;20220;-82
2023/10/12 00:26:45;;;;;;;10.73;7.37;;;;;;;-143.21;65.09;73119.38;5073163;28;20206;-82
2023/10/12 00:29:12;;;;;;;17.20;7.63;;;;;;;-143.21;65.14;73123.34;5072662;28;20233;-82
2023/10/12 00:31:41;;;;;;;11.60;7.70;;;;;;;-143.21;65.43;73125.31;5071277;28;20642;-81
2023/10/12 00:34:10;;;;;;;13.00;7.70;;;;;;;-143.21;65.29;73129.28;5071324;28;20234;-82
2023/10/12 00:36:39;;;;;;;12.17;7.60;;;;;;;-143.21;65.30;73125.31;5072627;28;20224;-81
2023/10/12 00:39:09;;;;;;;12.37;7.63;;;;;;;-143.21;65.18;73115.41;5072623;28;20235;-81
2023/10/12 00:41:37;;;;;;;11.57;8.23;;;;;;;-143.21;65.09;73111.44;5072415;28;20209;-81
2023/10/12 00:44:11;;;;;;;11.37;7.37;;;;;;;-143.21;64.75;73111.44;5072696;28;20243;-81
2023/10/12 00:46:48;;;;;;;16.73;8.33;;;;;;;-143.21;65.22;73133.25;5069496;28;20199;-81
2023/10/12 00:49:19;;;;;;;11.37;8.27;;;;;;;-143.21;65.48;73139.22;5071589;28;20205;-82
2023/10/12 00:51:51;;;;;;;17.73;8.97;;;;;;;-143.21;65.80;73147.13;5072077;28;20296;-81
2023/10/12 00:54:26;;;;;;;14.53;8.67;;;;;;;-143.21;65.90;73139.22;5072286;28;20267;-81
2023/10/12 00:56:56;;;;;;;13.47;8.50;;;;;;;-143.21;66.07;73145.16;5071976;28;20755;-81
2023/10/12 00:59:27;;;;;;;20.17;9.40;;;;;;;-143.21;66.35;73145.16;5072040;28;20209;-81
2023/10/12 01:01:54;;;;;;;16.37;9.00;;;;;;;-143.21;66.27;73149.13;5072108;28;20249;-80
2023/10/12 01:04:22;;;;;;;23.13;10.23;;;;;;;-143.21;66.11;73147.13;5072083;28;20206;-81
2023/10/12 01:06:49;;;;;;;17.13;10.23;;;;;;;-143.21;66.50;73153.09;5072226;28;20213;-81
2023/10/12 01:09:19;;;;;;;17.97;10.17;;;;;;;-143.21;66.32;73151.09;5072353;28;20208;-81
2023/10/12 01:11:53;;;;;;;19.97;10.07;;;;;;;-143.21;66.10;73141.19;5071749;28;20284;-80
2023/10/12 01:14:26;;;;;;;28.43;11.67;;;;;;;-143.21;66.06;73151.09;5071890;28;20312;-80
2023/10/12 01:16:58;;;;;;;21.30;11.13;;;;;;;-143.21;65.90;73155.06;5070756;28;20209;-81
2023/10/12 01:19:31;;;;;;;20.33;11.07;;;;;;;-143.21;65.73;73149.13;5071449;28;20260;-81
2023/10/12 01:22:12;;;;;;;24.67;9.83;;;;;;;-143.21;66.07;73155.06;5071137;28;20205;-80
2023/10/12 01:24:44;;;;;;;20.40;9.70;;;;;;;-143.21;66.20;73161.03;5068977;28;20216;-81
2023/10/12 01:27:14;;;;;;;22.60;10.17;;;;;;;-143.21;66.19;73165.00;5068302;28;20209;-80
2023/10/12 01:29:41;;;;;;;21.87;9.73;;;;;;;-143.21;65.99;73165.00;5068841;28;20290;-80
2023/10/12 01:32:27;;;;;;;21.23;9.53;;;;;;;-143.21;65.98;73161.03;5070615;28;20672;-80
2023/10/12 01:34:55;;;;;;;17.90;10.00;;;;;;;-143.21;65.77;73157.06;5070871;28;20217;-81
2023/10/12 01:37:25;;;;;;;18.57;9.17;;;;;;;-143.21;65.80;73163.00;5070698;28;20209;-82
2023/10/12 01:40:07;;;;;;;21.40;9.27;;;;;;;-143.21;66.11;73166.97;5071245;28;20217;-81
2023/10/12 01:42:49;;;;;;;17.07;9.07;;;;;;;-143.21;66.13;73168.97;5067862;28;20194;-81
2023/10/12 01:45:19;;;;;;;19.60;9.10;;;;;;;-143.21;66.12;73170.94;5069891;28;20205;-81
2023/10/12 01:47:50;;;;;;;15.60;8.27;;;;;;;-143.21;66.37;73168.97;5071185;28;20227;-81
2023/10/12 01:50:17;;;;;;;15.23;8.70;;;;;;;-143.21;66.16;73172.94;5070617;28;20263;-80
2023/10/12 01:52:52;;;;;;;16.07;8.07;;;;;;;-143.21;66.35;73182.84;5071126;28;20557;-81
2023/10/12 01:55:28;;;;;;;14.40;7.50;;;;;;;-143.21;66.41;73174.91;5070355;28;20205;-81
2023/10/12 01:57:55;;;;;;;22.60;8.33;;;;;;;-143.21;66.11;73178.88;5070860;28;20200;-81
2023/10/12 02:00:26;;;;;;;14.67;7.63;;;;;;;-143.21;66.15;73178.88;5069991;28;20637;-80
2023/10/12 02:03:00;;;;;;;16.07;8.00;;;;;;;-143.21;66.32;73184.84;5070006;28;21202;-81
2023/10/12 02:05:30;;;;;;;21.43;7.77;;;;;;;-143.21;66.50;73196.72;5069049;28;20701;-80
2023/10/12 02:08:05;;;;;;;13.83;7.33;;;;;;;-143.21;66.94;73208.63;5070355;28;20659;-80
2023/10/12 02:10:41;;;;;;;15.03;7.30;;;;;;;-143.21;66.78;73208.63;5067274;28;20693;-80
2023/10/12 02:13:10;;;;;;;15.50;7.83;;;;;;;-143.21;67.03;73214.59;5067608;28;20200;-80
2023/10/12 02:15:38;;;;;;;12.83;7.20;;;;;;;-143.21;67.01;73204.66;5070148;28;20252;-80
2023/10/12 02:18:10;;;;;;;16.60;7.70;;;;;;;-143.21;67.05;73210.63;5070417;28;20213;-81
2023/10/12 02:20:42;;;;;;;14.40;7.17;;;;;;;-143.21;66.87;73204.66;5068144;28;20247;-81
2023/10/12 02:23:15;;;;;;;13.70;7.43;;;;;;;-143.21;66.35;73204.66;5070455;28;20259;-81
2023/10/12 02:25:50;;;;;;;12.97;8.10;;;;;;;-143.21;66.79;73208.63;5070105;28;20211;-80
2023/10/12 02:28:22;;;;;;;15.07;8.17;;;;;;;-143.21;67.17;73214.59;5069886;28;20298;-80
2023/10/12 02:30:53;;;;;;;17.73;9.23;;;;;;;-143.21;66.95;73222.53;5070110;28;20217;-80
2023/10/12 02:33:24;;;;;;;21.17;9.57;;;;;;;-143.21;67.12;73220.53;5069878;28;20201;-81
2023/10/12 02:35:51;;;;;;;18.20;8.67;;;;;;;-143.21;67.42;73232.44;5069154;28;20232;-81
2023/10/12 02:38:21;;;;;;;12.47;8.23;;;;;;;-143.21;67.84;73236.41;5069634;28;20693;-84
2023/10/12 02:40:56;;;;;;;16.10;8.23;;;;;;;-143.21;67.97;73236.41;5070466;28;20198;-82
2023/10/12 02:43:27;;;;;;;19.03;8.17;;;;;;;-143.21;67.98;73248.31;5070227;28;20205;-84
2023/10/12 02:45:58;;;;;;;12.80;7.67;;;;;;;-143.21;67.85;73242.34;5070245;28;20274;-83
2023/10/12 02:48:29;;;;;;;17.17;9.10;;;;;;;-143.21;67.93;73252.28;5069880;28;20753;-83
2023/10/12 02:51:03;;;;;;;12.90;8.37;;;;;;;-143.21;68.10;73248.31;5069817;28;20251;-83
2023/10/12 02:53:35;;;;;;;16.63;8.00;;;;;;;-143.21;67.92;73252.28;5070586;28;20201;-81
2023/10/12 02:56:02;;;;;;;16.27;8.47;;;;;;;-143.21;68.21;73248.31;5067245;28;20229;-81
2023/10/12 02:58:29;;;;;;;14.73;8.67;;;;;;;-143.21;67.79;73236.41;5069357;28;20205;-83
2023/10/12 03:00:56;;;;;;;10.13;7.60;;;;;;;-143.21;67.57;73232.44;5069463;28;20201;-81
2023/10/12 03:03:25;;;;;;;12.57;7.77;;;;;;;-143.21;68.02;73240.38;5069033;28;20213;-82
2023/10/12 03:05:58;;;;;;;14.07;7.73;;;;;;;-143.21;67.93;73238.38;5069320;28;20214;-82
2023/10/12 03:08:30;;;;;;;17.00;8.93;;;;;;;-143.21;68.42;73246.31;5069440;28;20220;-82
2023/10/12 03:11:11;;;;;;;18.93;8.93;;;;;;;-143.21;67.87;73252.28;5069702;28;20588;-81
2023/10/12 03:13:40;;;;;;;16.93;8.17;;;;;;;-143.21;68.29;73258.22;5066905;28;20587;-81
2023/10/12 03:16:20;;;;;;;16.23;9.53;;;;;;;-143.21;67.97;73252.28;5069392;28;20239;-81
2023/10/12 03:18:53;;;;;;;16.27;8.97;;;;;;;-143.21;68.32;73256.25;5068632;28;20228;-82
2023/10/12 03:21:23;;;;;;;16.17;9.10;;;;;;;-143.21;68.39;73256.25;5069611;28;20625;-83
2023/10/12 03:23:50;;;;;;;14.63;8.73;;;;;;;-143.21;67.87;73260.22;5069910;28;20579;-83
2023/10/12 03:26:24;;;;;;;14.23;8.80;;;;;;;-143.21;68.20;73264.19;5069501;28;20193;-81
2023/10/12 03:28:51;;;;;;;12.30;8.37;;;;;;;-143.21;68.16;73254.25;5064156;28;20231;-83
2023/10/12 03:31:53;;;;;;;15.57;8.10;;;;;;;-143.21;68.03;73262.19;5069194;28;20672;-85
2023/10/12 03:34:35;;;;;;;16.30;8.70;;;;;;;-143.21;68.35;73256.25;5068351;28;20252;-85
2023/10/12 03:40:08;;;;;;;15.50;9.10;;;;;;;-143.21;68.13;73266.16;5064023;28;20217;-84
2023/10/12 03:42:42;;;;;;;23.77;9.37;;;;;;;-143.21;68.05;73272.13;5066242;28;20205;-83
2023/10/12 03:45:23;;;;;;;20.93;9.63;;;;;;;-143.21;68.60;73280.03;5067733;28;20189;-84
2023/10/12 03:48:03;;;;;;;19.10;9.67;;;;;;;-143.21;68.21;73278.06;5073011;28;20201;-81
2023/10/12 03:50:58;;;;;;;26.30;9.33;;;;;;;-143.21;67.86;73266.16;5072939;28;20200;-80
2023/10/12 03:53:26;;;;;;;20.20;9.07;;;;;;;-143.21;68.08;73272.13;5068250;28;20346;-81
2023/10/12 03:55:57;;;;;;;15.40;9.83;;;;;;;-143.21;68.39;73262.19;5071259;28;20228;-81
2023/10/12 03:58:31;;;;;;;14.40;8.57;;;;;;;-143.21;68.35;73278.06;5071720;28;20216;-84
2023/10/12 04:01:13;;;;;;;13.30;9.00;;;;;;;-143.21;69.28;73287.97;5069754;28;20658;-81
2023/10/12 04:03:43;;;;;;;24.67;9.23;;;;;;;-143.21;69.79;73305.84;5070417;28;20209;-82
2023/10/12 04:06:15;;;;;;;17.20;9.40;;;;;;;-143.21;69.98;73309.81;5072431;28;20200;-81
2023/10/12 04:08:51;;;;;;;17.20;9.17;;;;;;;-143.21;70.24;73317.75;5073086;28;20234;-82
2023/10/12 04:14:20;;;;;;;20.53;10.73;;;;;;;-143.21;69.52;73321.72;5060040;28;20201;-83
2023/10/12 04:16:56;;;;;;;27.47;11.30;;;;;;;-143.21;69.73;73319.72;5070798;28;20300;-82
2023/10/12 04:19:31;;;;;;;26.40;12.00;;;;;;;-143.21;69.24;73313.78;5072457;28;20208;-80
2023/10/12 04:22:05;;;;;;;21.03;11.40;;;;;;;-143.21;68.97;73303.84;5071945;28;20254;-81
2023/10/12 04:24:42;;;;;;;31.67;17.37;;;;;;;-143.21;68.94;73311.78;5072273;28;20640;-81
2023/10/12 04:30:18;;;;;;;30.73;14.47;;;;;;;-143.21;69.07;73315.75;5045541;28;20225;-80
2023/10/12 04:32:52;;;;;;;31.83;13.77;;;;;;;-143.21;69.00;73313.78;5070831;28;20545;-80
2023/10/12 04:35:27;;;;;;;26.83;14.40;;;;;;;-143.21;69.27;73309.81;5071532;28;20248;-81
2023/10/12 04:38:00;;;;;;;30.13;13.70;;;;;;;-143.21;69.18;73317.75;5069753;28;20212;-82
2023/10/12 04:40:37;;;;;;;28.10;13.90;;;;;;;-143.21;68.98;73307.81;5071677;28;20213;-79
2023/10/12 04:43:06;;;;;;;32.53;13.60;;;;;;;-143.21;69.45;73313.78;5069249;28;20574;-83
2023/10/12 04:46:05;;;;;;;31.30;14.27;;;;;;;-143.21;69.23;73313.78;5072867;28;20201;-86
2023/10/12 04:48:31;;;;;;;34.17;14.40;;;;;;;-143.21;69.39;73317.75;5073083;28;20209;-87
2023/10/12 04:51:01;;;;;;;46.90;16.70;;;;;;;-143.21;69.67;73317.75;5073135;28;20205;-86
2023/10/12 04:53:53;;;;;;;37.73;17.63;;;;;;;-143.21;69.62;73313.78;5073132;28;20296;-88
2023/10/12 04:56:23;;;;;;;44.77;17.50;;;;;;;-143.21;69.76;73319.72;5071468;28;20229;-85
2023/10/12 04:58:57;;;;;;;49.00;21.97;;;;;;;-143.21;69.97;73319.72;5071814;28;20571;-86
2023/10/12 05:01:30;;;;;;;60.00;23.23;;;;;;;-143.21;69.53;73311.78;5072159;28;20816;-83
2023/10/12 05:04:26;;;;;;;47.50;21.43;;;;;;;-143.21;70.02;73319.72;5069062;28;20205;-83
2023/10/12 05:07:23;;;;;;;45.33;22.27;;;;;;;-143.21;69.62;73313.78;5066989;28;20227;-83
2023/10/12 05:09:53;;;;;;;50.53;21.63;;;;;;;-143.21;69.59;73311.78;5071358;28;20208;-82
2023/10/12 05:12:24;;;;;;;52.63;18.43;;;;;;;-143.21;69.70;73301.88;5071176;28;20205;-83
2023/10/12 05:14:55;;;;;;;57.30;20.13;;;;;;;-143.21;69.92;73315.75;5071241;28;20239;-82
2023/10/12 05:17:25;;;;;;;50.40;19.47;;;;;;;-143.21;70.38;73319.72;5070391;28;20206;-81
2023/10/12 05:19:54;;;;;;;41.70;18.10;;;;;;;-143.21;69.99;73307.81;5047714;28;20206;-86
2023/10/12 05:22:23;;;;;;;34.30;18.17;;;;;;;-143.21;69.89;73295.91;5052608;28;21099;-85
2023/10/12 05:24:50;;;;;;;51.33;18.60;;;;;;;-143.21;70.09;73299.88;5047406;28;20202;-84
2023/10/12 05:27:23;;;;;;;31.93;16.20;;;;;;;-143.21;69.48;73287.97;5070845;28;20202;-82
2023/10/12 05:29:59;;;;;;;26.00;13.10;;;;;;;-143.21;69.65;73291.94;5071345;28;20261;-82
2023/10/12 05:32:42;;;;;;;25.33;13.47;;;;;;;-143.21;69.66;73289.97;5072161;28;20229;-82
2023/10/12 05:35:15;;;;;;;27.50;15.30;;;;;;;-143.21;69.83;73293.94;5070777;28;20209;-82
2023/10/12 05:37:48;;;;;;;37.63;16.73;;;;;;;-143.21;69.92;73305.84;5070561;28;20259;-83
2023/10/12 05:40:34;;;;;;;28.10;13.97;;;;;;;-143.21;70.07;73301.88;5071282;28;20206;-84
2023/10/12 05:43:15;;;;;;;22.07;11.80;;;;;;;-143.21;69.97;73289.97;5064174;28;20198;-83
2023/10/12 05:45:44;;;;;;;26.27;11.23;;;;;;;-143.21;69.08;73284.00;5069685;28;20196;-81
2023/10/12 05:48:15;;;;;;;24.37;11.80;;;;;;;-143.21;68.73;73291.94;5071813;28;20291;-82
2023/10/12 05:51:04;;;;;;;29.10;11.27;;;;;;;-143.21;68.41;73291.94;5071739;28;20233;-82
2023/10/12 05:53:34;;;;;;;28.17;10.53;;;;;;;-143.21;68.58;73287.97;5068131;28;20209;-83
2023/10/12 05:56:01;;;;;;;19.27;9.90;;;;;;;-143.21;68.66;73280.03;5071565;28;20205;-83
2023/10/12 05:58:28;;;;;;;20.03;10.43;;;;;;;-143.21;68.24;73284.00;5071611;28;20213;-81
2023/10/12 06:00:56;;;;;;;24.00;9.93;;;;;;;-143.21;68.13;73286.00;5071599;28;20201;-82
2023/10/12 06:03:24;;;;;;;17.10;10.03;;;;;;;-143.21;68.62;73287.97;5071052;28;20300;-82
2023/10/12 06:05:51;;;;;;;19.97;10.77;;;;;;;-143.21;68.63;73284.00;5071509;28;20216;-80
2023/10/12 06:08:19;;;;;;;20.83;10.40;;;;;;;-143.21;68.45;73289.97;5070617;28;20651;-80
2023/10/12 06:10:46;;;;;;;22.33;11.40;;;;;;;-143.21;68.83;73280.03;5070581;28;20213;-81
2023/10/12 06:13:15;;;;;;;18.10;10.97;;;;;;;-143.21;68.68;73284.00;5071157;28;20205;-82
2023/10/12 06:15:42;;;;;;;21.77;10.07;;;;;;;-143.21;68.79;73280.03;5071044;28;20256;-81
2023/10/12 06:18:21;;;;;;;16.27;9.53;;;;;;;-143.21;68.52;73272.13;5070957;28;20656;-82
2023/10/12 06:21:06;;;;;;;19.60;9.87;;;;;;;-143.21;67.87;73272.13;5070741;28;20542;-81
2023/10/12 06:23:39;;;;;;;19.67;10.60;;;;;;;-143.21;68.36;73287.97;5066912;28;20646;-81
2023/10/12 06:26:09;;;;;;;19.83;10.77;;;;;;;-143.21;68.37;73276.06;5069321;28;20668;-82
2023/10/12 06:28:38;;;;;;;27.23;10.40;;;;;;;-143.21;68.77;73276.06;5070399;28;20294;-82
2023/10/12 06:31:07;;;;;;;26.70;12.33;;;;;;;-143.21;68.32;73266.16;5070956;28;20235;-82
2023/10/12 06:33:40;;;;;;;20.30;12.17;;;;;;;-143.21;68.45;73280.03;5070532;28;20201;-80
2023/10/12 06:36:22;;;;;;;19.90;12.80;;;;;;;-143.21;68.94;73274.09;5069793;28;20213;-80
2023/10/12 06:39:02;;;;;;;19.73;11.57;;;;;;;-143.21;68.63;73272.13;5069858;28;20194;-81
2023/10/12 06:41:58;;;;;;;22.50;12.27;;;;;;;-143.21;68.51;73256.25;5070302;28;20316;-81
2023/10/12 06:44:25;;;;;;;17.73;9.90;;;;;;;-143.21;68.16;73240.38;5068486;28;20254;-81
2023/10/12 06:46:53;;;;;;;20.10;10.00;;;;;;;-143.21;68.12;73232.44;5070155;28;20232;-80
2023/10/12 06:49:22;;;;;;;19.13;10.00;;;;;;;-143.21;67.48;73222.53;5069715;28;20292;-81
2023/10/12 06:52:00;;;;;;;21.37;10.00;;;;;;;-143.21;67.34;73218.56;5069876;28;20733;-80
2023/10/12 06:54:39;;;;;;;22.07;9.37;;;;;;;-143.21;67.34;73228.47;5069842;28;20197;-81
2023/10/12 06:59:59;;;;;;;18.40;9.43;;;;;;;-143.21;67.90;73220.53;5070082;28;20203;-81
2023/10/12 07:02:27;;;;;;;19.30;9.53;;;;;;;-143.21;67.58;73216.56;5069858;28;20215;-82
2023/10/12 07:04:53;;;;;;;14.30;9.73;;;;;;;-143.21;67.62;73224.50;5069541;28;20583;-81
2023/10/12 07:07:27;;;;;;;18.47;9.03;;;;;;;-143.21;68.22;73228.47;5069212;28;20372;-79
2023/10/12 07:10:12;;;;;;;17.07;10.07;;;;;;;-143.21;68.05;73226.50;5069426;28;20213;-80
2023/10/12 07:12:44;;;;;;;17.47;10.53;;;;;;;-143.21;68.00;73214.59;5069461;28;20193;-81
2023/10/12 07:15:12;;;;;;;20.53;10.77;;;;;;;-143.21;67.92;73202.69;5069591;28;20205;-80
2023/10/12 07:17:48;;;;;;;20.70;10.40;;;;;;;-143.21;67.62;73186.81;5069765;28;20736;-81
2023/10/12 07:20:40;;;;;;;22.97;9.63;;;;;;;-143.21;67.23;73182.84;5068943;28;20200;-81
2023/10/12 07:23:14;;;;;;;16.03;10.07;;;;;;;-143.21;66.64;73161.03;5068276;28;20194;-79
2023/10/12 07:25:43;;;;;;;18.50;10.27;;;;;;;-143.21;66.06;73139.22;5069073;28;20207;-81
2023/10/12 07:28:18;;;;;;;20.43;10.80;;;;;;;-143.21;66.20;73143.16;5067801;28;20197;-81
2023/10/12 07:33:29;;;;;;;23.43;10.77;;;;;;;-143.21;65.57;73111.44;5069454;28;20589;-82
2023/10/12 07:35:57;;;;;;;23.13;11.10;;;;;;;-143.21;65.51;73105.47;5069268;28;20480;-81
2023/10/12 07:38:34;;;;;;;19.07;10.43;;;;;;;-143.21;65.10;73093.59;5068545;28;20286;-81
2023/10/12 07:41:03;;;;;;;20.17;10.63;;;;;;;-143.21;64.81;73089.63;5069609;28;20201;-82
2023/10/12 07:43:32;;;;;;;16.20;10.10;;;;;;;-143.21;64.59;73073.75;5069415;28;20232;-80
2023/10/12 07:46:09;;;;;;;21.47;10.20;;;;;;;-143.21;64.54;73071.75;5069349;28;20205;-80
2023/10/12 07:48:42;;;;;;;22.07;11.00;;;;;;;-143.21;64.22;73057.88;5066247;28;20624;-81
2023/10/12 07:51:18;;;;;;;21.07;10.67;;;;;;;-143.21;64.04;73042.00;5068350;28;20198;-81
2023/10/12 07:53:56;;;;;;;23.97;10.20;;;;;;;-143.21;63.96;73036.06;5067643;28;20755;-81
2023/10/12 07:56:24;;;;;;;21.03;9.50;;;;;;;-143.21;63.93;73028.13;5066493;28;20225;-80
2023/10/12 07:58:57;;;;;;;19.87;9.40;;;;;;;-143.21;63.54;73022.19;5067722;28;20684;-82
2023/10/12 08:01:38;;;;;;;16.70;9.57;;;;;;;-143.21;63.56;73010.28;5068706;28;20217;-80
2023/10/12 08:04:09;;;;;;;24.53;10.20;;;;;;;-143.21;63.13;72998.38;5065828;28;20202;-81
2023/10/12 08:06:42;;;;;;;23.00;10.13;;;;;;;-143.21;62.46;72978.53;5068504;28;20201;-80
2023/10/12 08:09:22;;;;;;;22.47;9.77;;;;;;;-143.21;62.43;72970.59;5068667;28;20627;-80
2023/10/12 08:11:56;;;;;;;19.43;10.73;;;;;;;-143.21;62.34;72956.72;5069054;28;20221;-80
2023/10/12 08:14:39;;;;;;;25.17;10.67;;;;;;;-143.21;61.83;72932.91;5068432;28;20209;-80
2023/10/12 08:20:12;;;;;;;17.37;10.03;;;;;;;-143.21;61.13;72887.28;5067991;28;20286;-80
2023/10/12 08:22:38;;;;;;;24.37;9.77;;;;;;;-143.21;59.93;72855.56;5065813;28;20204;-80
2023/10/12 08:25:07;;;;;;;27.43;9.53;;;;;;;-143.21;59.55;72823.81;5068436;28;20190;-81
2023/10/12 08:27:52;;;;;;;16.37;10.00;;;;;;;-143.21;58.76;72804.00;5068434;28;20661;-80
2023/10/12 08:30:23;;;;;;;16.40;10.40;;;;;;;-143.21;58.51;72784.16;5068667;28;20288;-82
2023/10/12 08:33:08;;;;;;;20.07;9.97;;;;;;;-143.21;57.67;72758.38;5069988;28;20691;-82
2023/10/12 08:36:10;;;;;;;22.83;9.80;;;;;;;-143.21;57.50;72720.69;5069600;28;20637;-82
2023/10/12 08:38:33;;;;;;;20.27;10.47;;;;;;;-143.21;56.07;72686.97;5072185;28;20209;-83
2023/10/12 08:41:20;;;;;;;18.83;9.20;;;;;;;-143.21;55.24;72647.31;5068683;28;20590;-80
2023/10/12 08:43:48;;;;;;;29.10;9.33;;;;;;;-143.21;54.26;72609.63;5070550;28;20207;-79
2023/10/12 08:46:47;;;;;;;22.90;9.20;;;;;;;-143.21;54.41;72577.88;5072088;28;20281;-81
2023/10/12 08:52:05;;;;;;;18.20;10.00;;;;;;;-143.21;51.78;72494.59;5071480;28;20584;-81
2023/10/12 08:54:35;;;;;;;15.30;9.20;;;;;;;-143.21;50.70;72458.88;5068669;28;20668;-83
2023/10/12 08:57:09;;;;;;;27.37;9.53;;;;;;;-143.21;50.63;72427.16;5068446;28;20603;-83
2023/10/12 08:59:42;;;;;;;18.53;8.83;;;;;;;-143.21;50.00;72387.50;5069369;28;20195;-82
2023/10/12 09:02:19;;;;;;;20.85;8.48;;;;;;;-143.21;48.86;72351.78;5071845;28;20197;-83
2023/10/12 09:04:53;;;;;;;17.73;8.32;;;;;;;-143.21;48.23;72310.16;5072338;28;20229;-83
2023/10/12 09:07:21;;;;;;;20.60;8.80;;;;;;;-143.21;47.36;72272.47;5072566;28;20557;-84
2023/10/12 09:09:54;;;;;;;18.40;8.30;;;;;;;-143.21;45.95;72236.78;5072295;28;20228;-83
2023/10/12 09:12:24;;;;;;;16.95;9.50;;;;;;;-143.21;45.69;72207.03;5072080;28;20215;-83
2023/10/12 09:14:55;;;;;;;15.32;8.88;;;;;;;-143.21;45.49;72193.16;5071949;28;20295;-83
2023/10/12 09:17:29;;;;;;;22.80;9.35;;;;;;;-143.21;45.09;72163.41;5071812;28;20261;-83
2023/10/12 09:20:21;;;;;;;15.55;9.10;;;;;;;-143.21;44.35;72133.66;5071703;28;20231;-80
2023/10/12 09:23:11;;;;;;;25.45;9.45;;;;;;;-143.21;43.69;72084.06;5070034;28;20270;-83
2023/10/12 09:28:42;;;;;;;21.77;9.13;;;;;;;-143.21;42.22;71986.91;5045843;28;20285;-83
2023/10/12 09:31:13;;;;;;;17.35;9.60;;;;;;;-143.21;41.63;71945.28;5068989;28;20283;-83
2023/10/12 09:33:53;;;;;;;15.98;10.00;;;;;;;-143.21;40.73;71915.53;5071771;28;20206;-84
2023/10/12 09:36:19;;;;;;;16.73;9.60;;;;;;;-143.21;40.62;71875.88;5071674;28;20695;-85
2023/10/12 09:38:47;;;;;;;24.30;10.23;;;;;;;-143.21;40.29;71832.25;5071697;28;20209;-85
2023/10/12 09:41:16;;;;;;;19.50;9.45;;;;;;;-143.21;39.63;71798.53;5071249;28;20589;-85
2023/10/12 09:43:53;;;;;;;13.65;8.65;;;;;;;-143.21;38.88;71743.00;5071040;28;20231;-84
2023/10/12 09:46:24;;;;;;;19.52;9.10;;;;;;;-143.21;37.48;71689.47;5071805;28;20242;-85
2023/10/12 09:48:58;;;;;;;26.23;9.50;;;;;;;-143.21;37.22;71657.75;5071538;28;20201;-84
2023/10/12 09:51:25;;;;;;;20.83;9.60;;;;;;;-143.21;36.88;71639.91;5071488;28;20198;-85
2023/10/12 09:53:58;;;;;;;16.52;9.32;;;;;;;-143.21;36.47;71596.28;5071629;28;20201;-85
2023/10/12 09:56:33;;;;;;;22.33;9.77;;;;;;;-143.21;35.94;71568.53;5071328;28;20201;-85
2023/10/12 09:59:08;;;;;;;19.42;8.68;;;;;;;-143.21;35.58;71530.88;5071484;28;20634;-84
2023/10/12 10:01:49;;;;;;;16.08;8.70;;;;;;;-143.21;35.59;71505.09;5068076;28;20321;-83
2023/10/12 10:04:29;;;;;;;19.75;9.23;;;;;;;-143.21;34.90;71457.50;5070747;28;20197;-83
2023/10/12 10:07:15;;;;;;;15.75;9.02;;;;;;;-143.21;34.04;71415.88;5070859;28;20199;-84
2023/10/12 10:09:46;;;;;;;24.23;10.05;;;;;;;-143.21;34.14;71415.88;5068862;28;20193;-83
2023/10/12 10:12:15;;;;;;;13.48;8.50;;;;;;;-143.21;34.03;71398.03;5070145;28;20596;-85
2023/10/12 10:14:47;;;;;;;18.92;8.77;;;;;;;-143.21;33.72;71388.09;5070641;28;20679;-83
2023/10/12 10:17:15;;;;;;;18.27;9.23;;;;;;;-143.21;33.47;71370.28;5070223;28;20213;-84
2023/10/12 10:19:51;;;;;;;16.15;8.73;;;;;;;-143.21;33.35;71358.38;5070493;28;20947;-84
2023/10/12 10:22:21;;;;;;;18.05;8.40;;;;;;;-143.21;32.85;71314.75;5070459;28;20203;-84
2023/10/12 10:24:51;;;;;;;23.90;9.20;;;;;;;-143.21;32.17;71273.13;5070773;28;20237;-84
2023/10/12 10:27:19;;;;;;;15.00;8.15;;;;;;;-143.21;32.05;71239.41;5070108;28;20280;-84
2023/10/12 10:29:53;;;;;;;20.52;9.32;;;;;;;-143.21;31.63;71207.69;5070304;28;20256;-85
2023/10/12 10:32:29;;;;;;;14.73;7.80;;;;;;;-143.21;31.54;71166.06;5071007;28;20275;-86
2023/10/12 10:34:59;;;;;;;16.35;8.40;;;;;;;-143.21;30.94;71134.34;5071167;28;20255;-85
2023/10/12 10:37:47;;;;;;;17.67;8.18;;;;;;;-143.21;30.30;71106.59;5070482;28;20291;-86
2023/10/12 10:40:17;;;;;;;15.85;7.82;;;;;;;-143.21;30.67;71062.97;5070398;28;20618;-84
2023/10/12 10:42:57;;;;;;;18.55;8.45;;;;;;;-143.21;30.32;71017.38;5073321;28;20209;-85
2023/10/12 10:45:27;;;;;;;26.00;8.27;;;;;;;-143.21;29.67;70991.63;5070349;28;20212;-86
2023/10/12 10:47:56;;;;;;;23.85;7.97;;;;;;;-143.21;29.99;71003.50;5070606;28;20209;-86
2023/10/12 10:50:24;;;;;;;16.85;8.00;;;;;;;-143.21;29.66;70967.81;5070747;28;20847;-86
2023/10/12 10:52:59;;;;;;;17.40;8.45;;;;;;;-143.21;29.15;70940.06;5070111;28;20206;-85
2023/10/12 10:55:31;;;;;;;22.17;8.38;;;;;;;-143.21;29.33;70949.97;5068700;28;20232;-84
2023/10/12 10:58:00;;;;;;;13.50;8.40;;;;;;;-143.21;29.33;70955.94;5069578;28;20213;-86
2023/10/12 11:00:45;;;;;;;15.85;7.60;;;;;;;-143.21;29.40;70922.22;5070307;28;20882;-86
2023/10/12 11:03:15;;;;;;;16.85;7.30;;;;;;;-143.21;29.23;70868.72;5070520;28;20201;-85
2023/10/12 11:05:44;;;;;;;15.32;7.90;;;;;;;-143.21;28.35;70837.00;5070454;28;20197;-86
2023/10/12 11:08:19;;;;;;;18.35;9.10;;;;;;;-143.21;28.26;70795.38;5069826;28;20213;-86
2023/10/12 11:13:40;;;;;;;18.85;8.18;;;;;;;-143.21;28.21;70813.19;5031143;28;20247;-86
2023/10/12 11:16:21;;;;;;;18.25;8.27;;;;;;;-143.21;28.03;70765.63;5070332;28;20293;-85
2023/10/12 11:18:48;;;;;;;17.88;8.02;;;;;;;-143.21;27.71;70739.84;5070407;28;20213;-86
2023/10/12 11:21:15;;;;;;;17.40;7.30;;;;;;;-143.21;27.81;70737.88;5069774;28;20679;-86
2023/10/12 11:23:44;;;;;;;18.90;6.90;;;;;;;-143.21;27.68;70704.19;5070650;28;20676;-86
2023/10/12 11:26:17;;;;;;;16.92;7.20;;;;;;;-143.21;27.44;70727.97;5070620;28;20262;-86
2023/10/12 11:28:45;;;;;;;17.20;7.25;;;;;;;-143.21;27.65;70725.97;5070506;28;20228;-87
2023/10/12 11:31:20;;;;;;;14.57;6.60;;;;;;;-143.21;27.71;70706.16;5069948;28;20205;-86
2023/10/12 11:33:50;;;;;;;20.58;7.35;;;;;;;-143.21;27.59;70712.09;5070025;28;20204;-87
2023/10/12 11:36:23;;;;;;;15.38;6.85;;;;;;;-143.21;27.35;70690.31;5070706;28;20201;-86
2023/10/12 11:38:58;;;;;;;15.68;6.88;;;;;;;-143.21;27.24;70658.59;5069862;28;20624;-87
2023/10/12 11:41:27;;;;;;;14.00;6.78;;;;;;;-143.21;27.07;70630.84;5070058;28;20233;-87
2023/10/12 11:43:53;;;;;;;13.38;6.60;;;;;;;-143.21;27.18;70607.06;5069986;28;20647;-86
2023/10/12 11:46:23;;;;;;;13.70;6.25;;;;;;;-143.21;27.26;70571.38;5070164;28;20213;-87
2023/10/12 11:49:04;;;;;;;13.60;6.10;;;;;;;-143.21;26.64;70547.59;5070521;28;20197;-86
2023/10/12 11:51:31;;;;;;;12.73;6.30;;;;;;;-143.21;26.55;70523.81;5067158;28;20201;-88
2023/10/12 11:53:58;;;;;;;21.30;6.05;;;;;;;-143.21;26.10;70519.84;5070047;28;20652;-87
2023/10/12 11:56:25;;;;;;;15.32;6.22;;;;;;;-143.21;25.98;70519.84;5069136;28;20201;-88
2023/10/12 11:58:55;;;;;;;19.08;5.80;;;;;;;-143.21;26.63;70515.88;5070033;28;20197;-86
2023/10/12 12:01:27;;;;;;;14.70;5.70;;;;;;;-143.21;26.35;70496.06;5070058;28;20236;-82